createdAt,value
2017-07-28T00:00:12.563Z,100418.08
2017-07-28T00:02:40.238Z,100420.50
2017-07-28T00:05:07.910Z,100423.86
2017-07-28T00:07:35.953Z,100425.87
2017-07-28T00:10:03.644Z,100434.56
2017-07-28T00:12:31.412Z,100442.78
2017-07-28T00:14:59.064Z,100443.44
2017-07-28T00:17:26.702Z,100444.47
2017-07-28T00:19:54.320Z,100441.34
2017-07-28T00:22:21.983Z,100446.61
2017-07-28T00:24:49.674Z,100446.80
2017-07-28T00:27:17.307Z,100439.33
2017-07-28T00:29:44.947Z,100446.27
2017-07-28T00:32:12.762Z,100440.61
2017-07-28T00:34:40.402Z,100436.37
2017-07-28T00:37:08.086Z,100439.58
2017-07-28T00:39:35.878Z,100434.85
2017-07-28T00:42:03.523Z,100437.33
2017-07-28T00:44:31.136Z,100441.30
2017-07-28T00:46:58.838Z,100445.95
2017-07-28T00:49:26.455Z,100450.14
2017-07-28T00:51:54.083Z,100450.00
2017-07-28T00:54:21.733Z,100455.91
2017-07-28T00:56:49.391Z,100448.23
2017-07-28T00:59:17.076Z,100449.36
2017-07-28T01:01:44.824Z,100455.88
2017-07-28T01:04:12.540Z,100448.84
2017-07-28T01:06:40.166Z,100455.13
2017-07-28T01:09:07.812Z,100453.73
2017-07-28T01:11:35.432Z,100452.09
2017-07-28T01:14:03.247Z,100455.04
2017-07-28T01:16:30.945Z,100460.80
2017-07-28T01:18:58.619Z,100472.02
2017-07-28T01:21:26.228Z,100474.98
2017-07-28T01:23:53.881Z,100471.95
2017-07-28T01:26:21.562Z,100471.05
2017-07-28T01:28:49.235Z,100471.75
2017-07-28T01:31:16.868Z,100466.44
2017-07-28T01:33:44.502Z,100461.56
2017-07-28T01:36:12.109Z,100472.33
2017-07-28T01:38:39.971Z,100471.73
2017-07-28T01:41:07.599Z,100473.92
2017-07-28T01:43:35.233Z,100481.36
2017-07-28T01:46:02.842Z,100476.25
2017-07-28T01:48:30.486Z,100479.59
2017-07-28T01:50:58.109Z,100488.44
2017-07-28T01:53:25.730Z,100488.16
2017-07-28T01:55:53.390Z,100501.77
2017-07-28T01:58:21.027Z,100504.68
2017-07-28T02:00:48.697Z,100501.00
2017-07-28T02:03:16.378Z,100503.36
2017-07-28T02:05:44.048Z,100506.29
2017-07-28T02:08:11.678Z,100508.27
2017-07-28T02:10:39.320Z,100508.43
2017-07-28T02:13:06.948Z,100504.83
2017-07-28T02:15:34.588Z,100510.94
2017-07-28T02:18:02.196Z,100505.63
2017-07-28T02:20:29.843Z,100515.14
2017-07-28T02:22:57.462Z,100522.38
2017-07-28T02:25:25.103Z,100530.39
2017-07-28T02:27:52.710Z,100532.36
2017-07-28T02:30:20.348Z,100532.36
2017-07-28T02:32:47.977Z,100534.85
2017-07-28T02:35:15.623Z,100534.55
2017-07-28T02:37:43.266Z,100537.61
2017-07-28T02:40:10.995Z,100539.02
2017-07-28T02:42:38.752Z,100537.83
2017-07-28T02:45:06.391Z,100531.48
2017-07-28T02:47:34.007Z,100532.06
2017-07-28T02:50:01.667Z,100535.55
2017-07-28T02:52:29.303Z,100531.33
2017-07-28T02:54:56.964Z,100537.58
2017-07-28T02:57:24.580Z,100536.38
2017-07-28T02:59:52.216Z,100537.48
2017-07-28T03:02:19.841Z,100539.30
2017-07-28T03:04:47.492Z,100536.70
2017-07-28T03:07:15.163Z,100536.81
2017-07-28T03:09:42.803Z,100534.16
2017-07-28T03:12:10.414Z,100538.27
2017-07-28T03:14:38.065Z,100547.73
2017-07-28T03:17:05.680Z,100549.85
2017-07-28T03:19:33.439Z,100550.39
2017-07-28T03:22:01.076Z,100557.25
2017-07-28T03:24:28.731Z,100555.00
2017-07-28T03:26:56.343Z,100552.35
2017-07-28T03:29:23.980Z,100554.91
2017-07-28T03:31:51.589Z,100561.28
2017-07-28T03:34:19.241Z,100566.56
2017-07-28T03:36:46.924Z,100562.05
2017-07-28T03:39:14.572Z,100561.79
2017-07-28T03:41:42.308Z,100564.52
2017-07-28T03:44:09.967Z,100568.22
2017-07-28T03:46:37.675Z,100570.14
2017-07-28T03:49:05.337Z,100568.50
2017-07-28T03:51:32.969Z,100566.33
2017-07-28T03:54:00.583Z,100566.84
2017-07-28T03:56:28.231Z,100574.36
2017-07-28T03:58:55.851Z,100576.02
2017-07-28T04:01:23.568Z,100573.52
2017-07-28T04:03:51.179Z,100579.05
2017-07-28T04:06:18.888Z,100573.02
2017-07-28T04:08:46.490Z,100576.66
2017-07-28T04:11:14.143Z,100575.67
2017-07-28T04:13:41.772Z,100580.62
2017-07-28T04:16:09.692Z,100577.40
2017-07-28T04:18:37.524Z,100574.55
2017-07-28T04:21:05.184Z,100574.00
2017-07-28T04:23:32.784Z,100567.55
2017-07-28T04:26:00.394Z,100577.66
2017-07-28T04:28:28.036Z,100579.22
2017-07-28T04:30:55.683Z,100577.36
2017-07-28T04:33:23.439Z,100578.38
2017-07-28T04:35:51.104Z,100576.34
2017-07-28T04:38:18.843Z,100587.31
2017-07-28T04:40:46.447Z,100595.00
2017-07-28T04:43:14.091Z,100587.02
2017-07-28T04:45:41.729Z,100584.89
2017-07-28T04:48:09.370Z,100589.98
2017-07-28T04:50:36.987Z,100590.06
2017-07-28T04:53:04.647Z,100587.16
2017-07-28T04:55:32.247Z,100590.03
2017-07-28T04:57:59.911Z,100590.88
2017-07-28T05:00:27.512Z,100595.39
2017-07-28T05:02:55.165Z,100591.02
2017-07-28T05:05:22.792Z,100599.53
2017-07-28T05:07:50.436Z,100608.19
2017-07-28T05:10:18.080Z,100609.39
2017-07-28T05:12:45.744Z,100616.87
2017-07-28T05:15:13.374Z,100620.67
2017-07-28T05:17:41.040Z,100613.24
2017-07-28T05:20:08.697Z,100608.45
2017-07-28T05:22:36.349Z,100607.48
2017-07-28T05:25:03.962Z,100610.93
2017-07-28T05:27:31.623Z,100607.44
2017-07-28T05:29:59.244Z,100608.38
2017-07-28T05:32:26.892Z,100606.83
2017-07-28T05:34:54.550Z,100608.56
2017-07-28T05:37:22.208Z,100606.37
2017-07-28T05:39:49.827Z,100616.04
2017-07-28T05:42:17.443Z,100616.09
2017-07-28T05:44:45.108Z,100617.30
2017-07-28T05:47:12.750Z,100615.30
2017-07-28T05:49:40.456Z,100619.62
2017-07-28T05:52:08.132Z,100621.34
2017-07-28T05:54:35.772Z,100627.48
2017-07-28T05:57:03.403Z,100627.39
2017-07-28T05:59:31.044Z,100625.63
2017-07-28T06:01:58.663Z,100621.27
2017-07-28T06:04:26.344Z,100623.77
2017-07-28T06:06:53.953Z,100623.38
2017-07-28T06:09:21.596Z,100618.86
2017-07-28T06:11:49.234Z,100620.11
2017-07-28T06:14:16.939Z,100630.59
2017-07-28T06:16:44.591Z,100624.23
2017-07-28T06:19:12.215Z,100623.81
2017-07-28T06:21:39.852Z,100619.55
2017-07-28T06:24:07.451Z,100631.52
2017-07-28T06:26:35.390Z,100640.83
2017-07-28T06:29:03.043Z,100646.61
2017-07-28T06:31:30.654Z,100654.94
2017-07-28T06:33:58.292Z,100653.36
2017-07-28T06:36:25.906Z,100653.82
2017-07-28T06:38:53.549Z,100658.23
2017-07-28T06:41:21.201Z,100662.00
2017-07-28T06:43:48.857Z,100654.77
2017-07-28T06:46:16.483Z,100662.90
2017-07-28T06:48:44.175Z,100667.37
2017-07-28T06:51:11.792Z,100664.14
2017-07-28T06:53:39.595Z,100657.89
2017-07-28T06:56:07.232Z,100672.38
2017-07-28T06:58:34.851Z,100676.96
2017-07-28T07:01:02.536Z,100684.72
2017-07-28T07:03:30.143Z,100688.98
2017-07-28T07:05:57.794Z,100688.59
2017-07-28T07:08:25.407Z,100694.87
2017-07-28T07:10:53.086Z,100694.19
2017-07-28T07:13:20.724Z,100683.70
2017-07-28T07:15:48.405Z,100685.56
2017-07-28T07:18:16.044Z,100690.77
2017-07-28T07:20:43.724Z,100692.48
2017-07-28T07:23:11.394Z,100694.15
2017-07-28T07:25:39.041Z,100688.82
2017-07-28T07:28:06.656Z,100706.51
2017-07-28T07:30:34.475Z,100698.05
2017-07-28T07:33:02.067Z,100692.48
2017-07-28T07:35:29.705Z,100697.84
2017-07-28T07:37:57.310Z,100700.87
2017-07-28T07:40:24.994Z,100724.42
2017-07-28T07:42:52.601Z,100722.47
2017-07-28T07:45:20.265Z,100727.52
2017-07-28T07:47:47.873Z,100724.65
2017-07-28T07:50:15.520Z,100719.13
2017-07-28T07:52:43.130Z,100705.37
2017-07-28T07:55:10.779Z,100700.67
2017-07-28T07:57:38.421Z,100708.11
2017-07-28T08:00:06.011Z,100710.47
2017-07-28T08:02:33.639Z,100720.72
2017-07-28T08:05:01.258Z,100724.16
2017-07-28T08:07:28.884Z,100727.89
2017-07-28T08:09:56.519Z,100726.73
2017-07-28T08:12:24.274Z,100718.52
2017-07-28T08:14:51.913Z,100724.05
2017-07-28T08:17:19.524Z,100716.61
2017-07-28T08:19:47.185Z,100726.00
2017-07-28T08:22:14.836Z,100723.76
2017-07-28T08:24:42.482Z,100743.22
2017-07-28T08:27:10.141Z,100745.15
2017-07-28T08:29:37.774Z,100735.83
2017-07-28T08:32:05.402Z,100736.12
2017-07-28T08:34:33.031Z,100728.37
2017-07-28T08:37:00.693Z,100725.19
2017-07-28T08:39:28.310Z,100730.12
2017-07-28T08:41:55.954Z,100725.67
2017-07-28T08:44:23.558Z,100718.48
2017-07-28T08:46:51.186Z,100716.72
2017-07-28T08:49:18.814Z,100719.20
2017-07-28T08:51:46.478Z,100707.50
2017-07-28T08:54:14.206Z,100712.64
2017-07-28T08:56:41.883Z,100720.08
2017-07-28T08:59:09.523Z,100725.02
2017-07-28T09:01:37.217Z,100742.77
2017-07-28T09:04:04.985Z,100742.45
2017-07-28T09:06:32.623Z,100749.56
2017-07-28T09:09:00.278Z,100742.88
2017-07-28T09:11:27.975Z,100745.08
2017-07-28T09:13:55.625Z,100747.41
2017-07-28T09:16:23.351Z,100735.66
2017-07-28T09:18:51.056Z,100742.30
2017-07-28T09:21:18.737Z,100736.70
2017-07-28T09:23:46.416Z,100753.55
2017-07-28T09:26:14.070Z,100746.75
2017-07-28T09:28:41.731Z,100742.95
2017-07-28T09:31:09.443Z,100751.56
2017-07-28T09:33:37.125Z,100751.63
2017-07-28T09:36:05.048Z,100755.41
2017-07-28T09:38:32.716Z,100751.55
2017-07-28T09:41:00.475Z,100752.53
2017-07-28T09:43:28.227Z,100758.53
2017-07-28T09:45:55.952Z,100754.77
2017-07-28T09:48:24.051Z,100760.13
2017-07-28T09:50:51.689Z,100761.96
2017-07-28T09:53:19.333Z,100750.20
2017-07-28T09:55:47.060Z,100746.05
2017-07-28T09:58:14.732Z,100757.96
2017-07-28T10:00:42.400Z,100756.13
2017-07-28T10:03:10.062Z,100761.42
2017-07-28T10:05:37.725Z,100762.66
2017-07-28T10:08:05.340Z,100759.70
2017-07-28T10:10:33.015Z,100763.86
2017-07-28T10:13:00.645Z,100752.77
2017-07-28T10:15:28.315Z,100754.38
2017-07-28T10:17:55.960Z,100769.55
2017-07-28T10:20:23.604Z,100760.94
2017-07-28T10:22:52.722Z,100749.21
2017-07-28T10:25:20.451Z,100758.09
2017-07-28T10:27:48.764Z,100764.41
2017-07-28T10:30:17.524Z,100782.50
2017-07-28T10:32:45.316Z,100763.18
2017-07-28T10:35:13.006Z,100772.93
2017-07-28T10:37:40.644Z,100767.28
2017-07-28T10:40:08.298Z,100761.83
2017-07-28T10:42:35.923Z,100763.59
2017-07-28T10:45:03.624Z,100769.04
2017-07-28T10:47:31.254Z,100774.31
2017-07-28T10:49:58.892Z,100788.22
2017-07-28T10:52:26.585Z,100785.51
2017-07-28T10:54:54.259Z,100788.28
2017-07-28T10:57:21.882Z,100777.07
2017-07-28T10:59:49.532Z,100781.77
2017-07-28T11:02:17.172Z,100778.72
2017-07-28T11:04:44.836Z,100777.86
2017-07-28T11:07:12.457Z,100782.34
2017-07-28T11:09:40.118Z,100782.80
2017-07-28T11:12:08.486Z,100808.33
2017-07-28T11:14:36.195Z,100792.82
2017-07-28T11:17:03.852Z,100791.64
2017-07-28T11:19:31.504Z,100790.57
2017-07-28T11:21:59.123Z,100783.77
2017-07-28T11:24:26.812Z,100786.37
2017-07-28T11:26:54.495Z,100783.26
2017-07-28T11:29:22.146Z,100781.18
2017-07-28T11:31:49.768Z,100783.59
2017-07-28T11:34:17.413Z,100781.73
2017-07-28T11:36:45.111Z,100775.59
2017-07-28T11:39:12.786Z,100774.52
2017-07-28T11:41:40.410Z,100778.97
2017-07-28T11:44:08.991Z,100770.31
2017-07-28T11:46:36.618Z,100766.97
2017-07-28T11:49:04.300Z,100772.78
2017-07-28T11:51:31.944Z,100775.48
2017-07-28T11:53:59.574Z,100771.11
2017-07-28T11:56:27.270Z,100774.07
2017-07-28T11:58:54.896Z,100776.70
2017-07-28T12:01:22.509Z,100777.80
2017-07-28T12:03:50.164Z,100783.78
2017-07-28T12:06:17.836Z,100775.48
2017-07-28T12:08:45.483Z,100778.27
2017-07-28T12:11:13.148Z,100780.23
2017-07-28T12:13:40.752Z,100790.23
2017-07-28T12:16:08.425Z,100783.52
2017-07-28T12:18:36.050Z,100770.90
2017-07-28T12:21:03.783Z,100762.67
2017-07-28T12:23:31.378Z,100776.05
2017-07-28T12:25:59.306Z,100766.88
2017-07-28T12:28:27.348Z,100774.88
2017-07-28T12:30:55.043Z,100776.64
2017-07-28T12:33:22.647Z,100785.02
2017-07-28T12:35:50.367Z,100790.68
2017-07-28T12:38:17.995Z,100799.72
2017-07-28T12:40:45.653Z,100802.84
2017-07-28T12:43:13.284Z,100812.81
2017-07-28T12:45:40.984Z,100812.59
2017-07-28T12:48:08.616Z,100801.68
2017-07-28T12:50:36.335Z,100799.48
2017-07-28T12:53:03.956Z,100798.67
2017-07-28T12:55:31.681Z,100797.69
2017-07-28T12:57:59.295Z,100797.94
2017-07-28T13:00:27.010Z,100804.38
2017-07-28T13:02:54.626Z,100807.47
2017-07-28T13:05:22.292Z,100803.06
2017-07-28T13:07:50.209Z,100804.55
2017-07-28T13:10:18.023Z,100804.17
2017-07-28T13:12:45.776Z,100803.80
2017-07-28T13:15:13.527Z,100808.48
2017-07-28T13:17:41.213Z,100803.23
2017-07-28T13:20:09.006Z,100799.04
2017-07-28T13:22:36.739Z,100813.34
2017-07-28T13:25:04.402Z,100802.97
2017-07-28T13:27:32.158Z,100813.22
2017-07-28T13:30:00.111Z,100805.58
2017-07-28T13:32:27.776Z,100809.50
2017-07-28T13:34:55.526Z,100808.38
2017-07-28T13:37:23.131Z,100810.48
2017-07-28T13:39:50.816Z,100809.25
2017-07-28T13:42:18.507Z,100806.34
2017-07-28T13:44:46.166Z,100815.34
2017-07-28T13:47:13.827Z,100810.83
2017-07-28T13:49:41.510Z,100816.52
2017-07-28T13:52:09.125Z,100813.72
2017-07-28T13:54:36.868Z,100811.28
2017-07-28T13:57:04.517Z,100808.50
2017-07-28T13:59:32.241Z,100805.73
2017-07-28T14:01:59.879Z,100805.70
2017-07-28T14:04:27.508Z,100799.43
2017-07-28T14:06:55.165Z,100809.11
2017-07-28T14:09:22.816Z,100809.31
2017-07-28T14:11:50.424Z,100804.79
2017-07-28T14:14:18.135Z,100803.75
2017-07-28T14:16:45.778Z,100811.23
2017-07-28T14:19:13.400Z,100805.82
2017-07-28T14:21:41.255Z,100811.94
2017-07-28T14:24:08.923Z,100813.05
2017-07-28T14:26:36.539Z,100812.74
2017-07-28T14:29:04.168Z,100810.18
2017-07-28T14:31:31.831Z,100828.94
2017-07-28T14:33:59.479Z,100827.47
2017-07-28T14:36:27.332Z,100835.82
2017-07-28T14:38:55.126Z,100823.30
2017-07-28T14:41:22.788Z,100824.80
2017-07-28T14:43:50.389Z,100823.94
2017-07-28T14:46:18.420Z,100819.84
2017-07-28T14:48:46.129Z,100816.53
2017-07-28T14:51:13.771Z,100812.63
2017-07-28T14:53:41.501Z,100808.27
2017-07-28T14:56:09.160Z,100814.38
2017-07-28T14:58:36.802Z,100814.64
2017-07-28T15:01:04.418Z,100814.44
2017-07-28T15:03:32.096Z,100815.30
2017-07-28T15:05:59.714Z,100823.67
2017-07-28T15:08:27.370Z,100816.50
2017-07-28T15:10:55.170Z,100815.61
2017-07-28T15:13:22.830Z,100814.38
2017-07-28T15:15:50.568Z,100808.84
2017-07-28T15:18:18.286Z,100812.69
2017-07-28T15:20:45.955Z,100803.08
2017-07-28T15:23:13.628Z,100800.66
2017-07-28T15:25:41.275Z,100797.30
2017-07-28T15:28:08.886Z,100805.58
2017-07-28T15:30:36.578Z,100805.69
2017-07-28T15:33:04.195Z,100809.42
2017-07-28T15:35:31.843Z,100834.14
2017-07-28T15:37:59.454Z,100830.47
2017-07-28T15:40:27.074Z,100833.81
2017-07-28T15:42:54.705Z,100834.81
2017-07-28T15:45:22.406Z,100837.12
2017-07-28T15:47:50.193Z,100832.30
2017-07-28T15:50:17.860Z,100831.52
2017-07-28T15:52:45.479Z,100828.95
2017-07-28T15:55:13.136Z,100823.36
2017-07-28T15:57:40.749Z,100828.45
2017-07-28T16:00:08.407Z,100830.15
2017-07-28T16:02:36.034Z,100827.11
2017-07-28T16:05:03.721Z,100832.88
2017-07-28T16:07:31.363Z,100834.30
2017-07-28T16:09:59.013Z,100833.31
2017-07-28T16:12:27.148Z,100836.89
2017-07-28T16:14:54.815Z,100839.76
2017-07-28T16:17:22.446Z,100841.81
2017-07-28T16:19:50.124Z,100839.42
2017-07-28T16:22:17.742Z,100842.22
2017-07-28T16:24:47.103Z,100842.26
2017-07-28T16:27:14.734Z,100837.71
2017-07-28T16:29:42.414Z,100843.30
2017-07-28T16:32:10.003Z,100848.16
2017-07-28T16:34:37.634Z,100848.44
2017-07-28T16:37:05.228Z,100849.38
2017-07-28T16:39:32.947Z,100853.77
2017-07-28T16:42:00.539Z,100854.91
2017-07-28T16:44:28.182Z,100852.85
2017-07-28T16:46:55.821Z,100858.27
2017-07-28T16:49:23.458Z,100847.58
2017-07-28T16:51:51.073Z,100852.22
2017-07-28T16:54:18.670Z,100850.69
2017-07-28T16:56:46.349Z,100846.73
2017-07-28T16:59:13.942Z,100849.84
2017-07-28T17:01:41.599Z,100843.95
2017-07-28T17:04:09.219Z,100839.78
2017-07-28T17:06:36.869Z,100840.09
2017-07-28T17:09:04.463Z,100844.94
2017-07-28T17:11:32.086Z,100841.28
2017-07-28T17:13:59.703Z,100844.70
2017-07-28T17:16:27.339Z,100840.91
2017-07-28T17:18:54.957Z,100842.72
2017-07-28T17:21:22.651Z,100846.72
2017-07-28T17:23:50.251Z,100838.59
2017-07-28T17:26:17.855Z,100835.95
2017-07-28T17:28:45.494Z,100834.55
2017-07-28T17:31:13.132Z,100832.28
2017-07-28T17:33:40.803Z,100838.22
2017-07-28T17:36:08.457Z,100830.47
2017-07-28T17:38:36.082Z,100828.45
2017-07-28T17:41:03.753Z,100833.31
2017-07-28T17:43:31.394Z,100839.31
2017-07-28T17:45:58.991Z,100842.96
2017-07-28T17:48:26.629Z,100837.53
2017-07-28T17:50:54.231Z,100832.17
2017-07-28T17:53:21.860Z,100831.72
2017-07-28T17:55:49.461Z,100837.96
2017-07-28T17:58:17.102Z,100828.08
2017-07-28T18:00:44.691Z,100828.77
2017-07-28T18:03:12.362Z,100827.27
2017-07-28T18:05:40.091Z,100836.53
2017-07-28T18:08:07.781Z,100835.84
2017-07-28T18:10:35.406Z,100840.47
2017-07-28T18:13:03.084Z,100837.51
2017-07-28T18:15:30.714Z,100843.45
2017-07-28T18:17:58.350Z,100847.22
2017-07-28T18:20:26.000Z,100843.86
2017-07-28T18:22:53.646Z,100841.46
2017-07-28T18:25:21.296Z,100843.87
2017-07-28T18:27:48.934Z,100842.44
2017-07-28T18:30:16.575Z,100848.30
2017-07-28T18:32:44.202Z,100855.25
2017-07-28T18:35:11.839Z,100858.77
2017-07-28T18:37:39.483Z,100865.23
2017-07-28T18:40:07.161Z,100854.59
2017-07-28T18:42:34.758Z,100868.23
2017-07-28T18:45:02.382Z,100863.87
2017-07-28T18:47:29.996Z,100865.20
2017-07-28T18:49:57.646Z,100864.88
2017-07-28T18:52:25.309Z,100868.17
2017-07-28T18:54:52.944Z,100868.47
2017-07-28T18:57:20.569Z,100859.17
2017-07-28T18:59:48.216Z,100861.32
2017-07-28T19:02:15.808Z,100861.89
2017-07-28T19:04:43.496Z,100859.70
2017-07-28T19:07:11.120Z,100857.23
2017-07-28T19:09:38.726Z,100863.91
2017-07-28T19:12:06.387Z,100863.80
2017-07-28T19:14:34.040Z,100872.22
2017-07-28T19:17:01.635Z,100866.16
2017-07-28T19:19:29.275Z,100870.80
2017-07-28T19:21:56.880Z,100872.07
2017-07-28T19:24:24.542Z,100880.27
2017-07-28T19:26:52.189Z,100883.56
2017-07-28T19:29:19.782Z,100879.56
2017-07-28T19:31:47.431Z,100880.86
2017-07-28T19:34:15.032Z,100883.25
2017-07-28T19:36:42.709Z,100891.05
2017-07-28T19:39:10.360Z,100890.02
2017-07-28T19:41:37.994Z,100901.05
2017-07-28T19:44:05.620Z,100893.94
2017-07-28T19:46:33.255Z,100905.83
2017-07-28T19:49:00.864Z,100898.13
2017-07-28T19:51:28.491Z,100909.53
2017-07-28T19:53:56.139Z,100922.23
2017-07-28T19:56:23.775Z,100921.52
2017-07-28T19:58:51.366Z,100926.42
2017-07-28T20:01:19.007Z,100932.67
2017-07-28T20:03:46.614Z,100938.36
2017-07-28T20:06:14.218Z,100927.30
2017-07-28T20:08:41.901Z,100922.97
2017-07-28T20:11:09.519Z,100927.38
2017-07-28T20:13:37.207Z,100922.11
2017-07-28T20:16:04.818Z,100925.61
2017-07-28T20:18:32.455Z,100933.94
2017-07-28T20:21:00.047Z,100922.97
2017-07-28T20:23:27.810Z,100914.61
2017-07-28T20:25:55.427Z,100921.06
2017-07-28T20:28:23.025Z,100927.78
2017-07-28T20:30:50.686Z,100925.53
2017-07-28T20:33:18.281Z,100928.25
2017-07-28T20:35:45.926Z,100927.78
2017-07-28T20:38:13.521Z,100919.28
2017-07-28T20:40:41.142Z,100914.56
2017-07-28T20:43:08.753Z,100919.03
2017-07-28T20:45:36.358Z,100916.31
2017-07-28T20:48:03.978Z,100917.95
2017-07-28T20:50:31.626Z,100924.13
2017-07-28T20:52:59.254Z,100919.73
2017-07-28T20:55:26.857Z,100916.05
2017-07-28T20:57:54.488Z,100911.78
2017-07-28T21:00:22.090Z,100912.15
2017-07-28T21:02:49.746Z,100912.31
2017-07-28T21:05:17.334Z,100902.41
2017-07-28T21:07:44.977Z,100910.88
2017-07-28T21:10:12.595Z,100909.21
2017-07-28T21:12:40.226Z,100910.80
2017-07-28T21:15:07.828Z,100904.63
2017-07-28T21:17:35.452Z,100910.72
2017-07-28T21:20:03.102Z,100909.70
2017-07-28T21:22:30.734Z,100905.81
2017-07-28T21:24:58.391Z,100904.56
2017-07-28T21:27:26.010Z,100912.16
2017-07-28T21:29:53.650Z,100907.14
2017-07-28T21:32:21.269Z,100908.27
2017-07-28T21:34:48.859Z,100911.55
2017-07-28T21:37:16.542Z,100912.45
2017-07-28T21:39:44.125Z,100914.71
2017-07-28T21:42:11.770Z,100907.47
2017-07-28T21:44:39.362Z,100898.64
2017-07-28T21:47:06.994Z,100900.66
2017-07-28T21:49:34.615Z,100896.12
2017-07-28T21:52:02.763Z,100897.52
2017-07-28T21:54:30.381Z,100901.69
2017-07-28T21:56:57.967Z,100886.94
2017-07-28T21:59:25.606Z,100884.09
2017-07-28T22:01:53.238Z,100885.05
2017-07-28T22:04:20.840Z,100885.29
2017-07-28T22:06:48.491Z,100880.94
2017-07-28T22:09:16.090Z,100879.34
2017-07-28T22:11:43.706Z,100875.88
2017-07-28T22:14:11.330Z,100876.32
2017-07-28T22:16:38.946Z,100875.84
2017-07-28T22:19:06.574Z,100873.31
2017-07-28T22:21:34.195Z,100869.94
2017-07-28T22:24:01.823Z,100875.66
2017-07-28T22:26:29.413Z,100870.41
2017-07-28T22:28:57.046Z,100863.91
2017-07-28T22:31:24.638Z,100864.25
2017-07-28T22:33:52.311Z,100853.63
2017-07-28T22:36:19.918Z,100857.45
2017-07-28T22:38:47.533Z,100861.28
2017-07-28T22:41:15.166Z,100863.91
2017-07-28T22:43:42.771Z,100855.91
2017-07-28T22:46:10.377Z,100846.59
2017-07-28T22:48:38.051Z,100849.47
2017-07-28T22:51:05.625Z,100861.16
2017-07-28T22:53:33.234Z,100851.80
2017-07-28T22:56:00.878Z,100847.66
2017-07-28T22:58:28.475Z,100833.00
2017-07-28T23:00:56.146Z,100845.20
2017-07-28T23:03:23.756Z,100843.74
2017-07-28T23:05:51.397Z,100835.73
2017-07-28T23:08:18.990Z,100832.86
2017-07-28T23:10:46.623Z,100827.56
2017-07-28T23:13:14.225Z,100838.30
2017-07-28T23:15:41.831Z,100833.25
2017-07-28T23:18:09.459Z,100829.09
2017-07-28T23:20:37.059Z,100829.41
2017-07-28T23:23:04.682Z,100826.79
2017-07-28T23:25:32.326Z,100830.86
2017-07-28T23:27:59.967Z,100830.38
2017-07-28T23:30:27.557Z,100819.12
2017-07-28T23:32:55.186Z,100822.94
2017-07-28T23:35:22.786Z,100814.57
2017-07-28T23:37:50.426Z,100811.77
2017-07-28T23:40:18.068Z,100808.07
2017-07-28T23:42:45.662Z,100807.72
2017-07-28T23:45:13.295Z,100809.87
2017-07-28T23:47:40.950Z,100816.78
2017-07-28T23:50:08.545Z,100816.16
2017-07-28T23:52:36.167Z,100809.93
2017-07-28T23:55:03.763Z,100803.94
2017-07-28T23:57:31.427Z,100799.55
2017-07-28T23:59:59.026Z,100791.85
